UAE883 RPVM-OMDB
Flight info
| Callsign | UAE883 |
|---|---|
| Flight time | N/A |
| Altitude | 34000 |
| Route | MOLOC4P MOLOC W11 MIA L628 ARESI/K0930F340 L628 PCA G474 PLK B202 BOMPA/N0502F340 B202 UBL G473 MAKAS/N0495F360 G473 BGO G472 SAGOD N895 BODAR W40 AAE/N0493F380 L639 RASKI L301 RAGMA N571 VUSET A454 PASOV M564 PUXIL P574 IMPED |
| Aircraft | B77W/H-SDE1E2E3FGHIJ2J3J4J5M1RWXY/LB1D1 |
Departure
| Time | 2026-04-28 21:46 |
|---|---|
| Airport | Mactan Cebu International Airport (RPVM) |
Arrival
| Time | N/A |
|---|---|
| Airport | Dubai International Airport (OMDB) |
| Time | Latitude | Longitude | Altitude | Speed | Heading |
|---|---|---|---|---|---|
| 2026-04-28 21:23 | 10.31279 | 123.97763 | 38 ft | 0 kts | 266° |
| 2026-04-28 21:34 | 10.31280 | 123.97772 | 38 ft | 2 kts | 266° |
| 2026-04-28 21:35 | 10.31282 | 123.97787 | 38 ft | 2 kts | 261° |
| 2026-04-28 21:35 | 10.31285 | 123.97802 | 38 ft | 2 kts | 258° |
| 2026-04-28 21:35 | 10.31289 | 123.97817 | 38 ft | 2 kts | 253° |
| 2026-04-28 21:35 | 10.31294 | 123.97831 | 38 ft | 2 kts | 249° |
| 2026-04-28 21:36 | 10.31300 | 123.97845 | 38 ft | 2 kts | 246° |
| 2026-04-28 21:36 | 10.31307 | 123.97859 | 38 ft | 2 kts | 242° |
| 2026-04-28 21:36 | 10.31315 | 123.97872 | 38 ft | 2 kts | 239° |
| 2026-04-28 21:36 | 10.31324 | 123.97883 | 38 ft | 1 kts | 228° |
| 2026-04-28 21:37 | 10.31337 | 123.97890 | 38 ft | 2 kts | 210° |
| 2026-04-28 21:37 | 10.31350 | 123.97896 | 38 ft | 2 kts | 206° |
| 2026-04-28 21:37 | 10.31364 | 123.97902 | 38 ft | 1 kts | 203° |
| 2026-04-28 21:37 | 10.31366 | 123.97903 | 38 ft | 0 kts | 203° |
| 2026-04-28 21:41 | 10.31362 | 123.97902 | 38 ft | 1 kts | 198° |
| 2026-04-28 21:41 | 10.31354 | 123.97901 | 38 ft | 0 kts | 179° |
| 2026-04-28 21:41 | 10.31317 | 123.97911 | 38 ft | 10 kts | 145° |
| 2026-04-28 21:41 | 10.31274 | 123.97942 | 38 ft | 5 kts | 104° |
| 2026-04-28 21:42 | 10.31249 | 123.97973 | 38 ft | 5 kts | 156° |
| 2026-04-28 21:42 | 10.31215 | 123.97980 | 38 ft | 5 kts | 202° |
| 2026-04-28 21:42 | 10.31174 | 123.97955 | 38 ft | 9 kts | 233° |
| 2026-04-28 21:42 | 10.31042 | 123.97812 | 38 ft | 13 kts | 223° |
| 2026-04-28 21:43 | 10.30434 | 123.97211 | 38 ft | 14 kts | 211° |
| 2026-04-28 21:43 | 10.30366 | 123.97166 | 38 ft | 0 kts | 176° |
| 2026-04-28 21:43 | 10.30355 | 123.97168 | 38 ft | 3 kts | 158° |
| 2026-04-28 21:43 | 10.30322 | 123.97210 | 38 ft | 11 kts | 64° |
| 2026-04-28 21:44 | 10.30329 | 123.97244 | 38 ft | 5 kts | 42° |
| 2026-04-28 21:44 | 10.30347 | 123.97262 | 38 ft | 0 kts | 47° |
| 2026-04-28 21:44 | 10.30354 | 123.97270 | 38 ft | 4 kts | 47° |
| 2026-04-28 21:44 | 10.30480 | 123.97394 | 38 ft | 54 kts | 40° |
| 2026-04-28 21:45 | 10.30665 | 123.97589 | 38 ft | 0 kts | 40° |
| 2026-04-28 21:45 | 10.30783 | 123.97694 | 38 ft | 53 kts | 47° |
| 2026-04-28 21:45 | 10.31080 | 123.98000 | 41 ft | 0 kts | 40° |
| 2026-04-28 21:45 | 10.31502 | 123.98436 | 134 ft | 145 kts | 45° |
| 2026-04-28 21:46 | 10.32449 | 123.99395 | 889 ft | 212 kts | 46° |
| 2026-04-28 21:46 | 10.33431 | 124.00390 | 1845 ft | 196 kts | 45° |
| 2026-04-28 21:46 | 10.34473 | 124.01429 | 1801 ft | 226 kts | 45° |
| 2026-04-28 21:46 | 10.35681 | 124.02636 | 1874 ft | 252 kts | 46° |
| 2026-04-28 21:47 | 10.36946 | 124.03876 | 2484 ft | 255 kts | 41° |
| 2026-04-28 21:47 | 10.38520 | 124.04711 | 3045 ft | 262 kts | 13° |
| 2026-04-28 21:47 | 10.40338 | 124.04647 | 3650 ft | 269 kts | 344° |
| 2026-04-28 21:47 | 10.42079 | 124.03881 | 4250 ft | 273 kts | 337° |
| 2026-04-28 21:48 | 10.43787 | 124.03065 | 4860 ft | 275 kts | 337° |
| 2026-04-28 21:48 | 10.45529 | 124.02220 | 5461 ft | 278 kts | 336° |
| 2026-04-28 21:48 | 10.47281 | 124.01359 | 6068 ft | 280 kts | 336° |
| 2026-04-28 21:48 | 10.49029 | 124.00494 | 6662 ft | 282 kts | 336° |
| 2026-04-28 21:49 | 10.50744 | 123.99641 | 7210 ft | 285 kts | 336° |
| 2026-04-28 21:49 | 10.52552 | 123.98740 | 7796 ft | 288 kts | 336° |
| 2026-04-28 21:49 | 10.54350 | 123.97844 | 8338 ft | 291 kts | 336° |
| 2026-04-28 21:49 | 10.56171 | 123.96935 | 8899 ft | 294 kts | 336° |
| 2026-04-28 21:50 | 10.58014 | 123.96014 | 9461 ft | 296 kts | 336° |
| 2026-04-28 21:50 | 10.59858 | 123.95092 | 9999 ft | 299 kts | 336° |
| 2026-04-28 21:50 | 10.61771 | 123.94138 | 10328 ft | 312 kts | 336° |
| 2026-04-28 21:50 | 10.63803 | 123.93118 | 10346 ft | 336 kts | 333° |
| 2026-04-28 21:51 | 10.65793 | 123.91697 | 10403 ft | 363 kts | 317° |
| 2026-04-28 21:51 | 10.67499 | 123.89726 | 10479 ft | 387 kts | 311° |
| 2026-04-28 21:51 | 10.69270 | 123.87618 | 11038 ft | 395 kts | 312° |
| 2026-04-28 21:51 | 10.71068 | 123.85465 | 11776 ft | 399 kts | 312° |
| 2026-04-28 21:52 | 10.72876 | 123.83323 | 12403 ft | 405 kts | 311° |
| 2026-04-28 21:52 | 10.74715 | 123.81143 | 13098 ft | 408 kts | 311° |
| 2026-04-28 21:52 | 10.76569 | 123.78951 | 13771 ft | 413 kts | 311° |
| 2026-04-28 21:52 | 10.78441 | 123.76737 | 14453 ft | 416 kts | 312° |
| 2026-04-28 21:53 | 10.80353 | 123.74477 | 15099 ft | 421 kts | 312° |
| 2026-04-28 21:53 | 10.82258 | 123.72225 | 15743 ft | 425 kts | 312° |
| 2026-04-28 21:53 | 10.84203 | 123.69927 | 16387 ft | 430 kts | 312° |
| 2026-04-28 21:53 | 10.86170 | 123.67601 | 17016 ft | 434 kts | 312° |
| 2026-04-28 21:54 | 10.88128 | 123.65286 | 17694 ft | 436 kts | 312° |
| 2026-04-28 21:54 | 10.90128 | 123.62923 | 18304 ft | 440 kts | 312° |
| 2026-04-28 21:54 | 10.92107 | 123.60583 | 18921 ft | 444 kts | 312° |
| 2026-04-28 21:54 | 10.94127 | 123.58193 | 19540 ft | 447 kts | 312° |
| 2026-04-28 21:55 | 10.96167 | 123.55780 | 20102 ft | 450 kts | 312° |
| 2026-04-28 21:55 | 10.98214 | 123.53357 | 20633 ft | 453 kts | 312° |
| 2026-04-28 21:55 | 11.00274 | 123.50926 | 21189 ft | 455 kts | 313° |
| 2026-04-28 21:55 | 11.02549 | 123.48687 | 21653 ft | 456 kts | 322° |
| 2026-04-28 21:56 | 11.05170 | 123.46862 | 22084 ft | 457 kts | 331° |
| 2026-04-28 21:56 | 11.07933 | 123.45245 | 22525 ft | 460 kts | 330° |
| 2026-04-28 21:56 | 11.10625 | 123.43475 | 22953 ft | 462 kts | 328° |
| 2026-04-28 21:56 | 11.13316 | 123.41675 | 23322 ft | 466 kts | 327° |
| 2026-04-28 21:57 | 11.16014 | 123.39830 | 23716 ft | 469 kts | 327° |
| 2026-04-28 21:57 | 11.18726 | 123.37962 | 24092 ft | 472 kts | 327° |
| 2026-04-28 21:57 | 11.21473 | 123.36060 | 24457 ft | 474 kts | 327° |
| 2026-04-28 21:57 | 11.24215 | 123.34152 | 24824 ft | 476 kts | 326° |
| 2026-04-28 21:58 | 11.26935 | 123.32256 | 25158 ft | 479 kts | 326° |
| 2026-04-28 21:58 | 11.29700 | 123.30326 | 25474 ft | 481 kts | 326° |
| 2026-04-28 21:58 | 11.32457 | 123.28400 | 25806 ft | 483 kts | 326° |
| 2026-04-28 21:58 | 11.35241 | 123.26453 | 26095 ft | 485 kts | 326° |
| 2026-04-28 21:59 | 11.38029 | 123.24502 | 26411 ft | 487 kts | 326° |
| 2026-04-28 21:59 | 11.40834 | 123.22538 | 26727 ft | 488 kts | 326° |
| 2026-04-28 21:59 | 11.43537 | 123.20646 | 26912 ft | 491 kts | 326° |
| 2026-04-28 22:00 | 11.49193 | 123.16684 | 27615 ft | 489 kts | 326° |
| 2026-04-28 22:00 | 11.51976 | 123.14733 | 27933 ft | 488 kts | 326° |
| 2026-04-28 22:00 | 11.54798 | 123.12754 | 28156 ft | 490 kts | 326° |
| 2026-04-28 22:00 | 11.57507 | 123.10854 | 28456 ft | 488 kts | 326° |
| 2026-04-28 22:01 | 11.60210 | 123.08958 | 28756 ft | 487 kts | 326° |
| 2026-04-28 22:01 | 11.62969 | 123.07022 | 29067 ft | 486 kts | 326° |
| 2026-04-28 22:01 | 11.65794 | 123.05040 | 29360 ft | 485 kts | 326° |
| 2026-04-28 22:01 | 11.68482 | 123.03153 | 29563 ft | 486 kts | 326° |
| 2026-04-28 22:02 | 11.71264 | 123.01199 | 29887 ft | 484 kts | 326° |
| 2026-04-28 22:02 | 11.74040 | 122.99249 | 30327 ft | 479 kts | 326° |
| 2026-04-28 22:02 | 11.76784 | 122.97321 | 30553 ft | 480 kts | 326° |
| 2026-04-28 22:02 | 11.79567 | 122.95365 | 30777 ft | 480 kts | 326° |
| 2026-04-28 22:03 | 11.82305 | 122.93441 | 31034 ft | 479 kts | 326° |
| 2026-04-28 22:03 | 11.85060 | 122.91504 | 31284 ft | 478 kts | 326° |
| 2026-04-28 22:03 | 11.87801 | 122.89577 | 31504 ft | 478 kts | 326° |
| 2026-04-28 22:03 | 11.90520 | 122.87665 | 31747 ft | 477 kts | 326° |
| 2026-04-28 22:04 | 11.93252 | 122.85742 | 31972 ft | 477 kts | 326° |
| 2026-04-28 22:04 | 11.96009 | 122.83801 | 32193 ft | 477 kts | 325° |
| 2026-04-28 22:04 | 11.98749 | 122.81873 | 32399 ft | 476 kts | 325° |
| 2026-04-28 22:04 | 12.01484 | 122.79947 | 32559 ft | 477 kts | 325° |
| 2026-04-28 22:05 | 12.04194 | 122.78039 | 32819 ft | 476 kts | 325° |
| 2026-04-28 22:05 | 12.06932 | 122.76109 | 33091 ft | 475 kts | 325° |
| 2026-04-28 22:05 | 12.09655 | 122.74191 | 33231 ft | 476 kts | 325° |
| 2026-04-28 22:05 | 12.12228 | 122.72378 | 33403 ft | 476 kts | 325° |
| 2026-04-28 22:06 | 12.14982 | 122.70435 | 33608 ft | 476 kts | 325° |
| 2026-04-28 22:06 | 12.17689 | 122.68527 | 33931 ft | 473 kts | 325° |
| 2026-04-28 22:06 | 12.20382 | 122.66626 | 33983 ft | 467 kts | 325° |
| 2026-04-28 22:07 | 12.25715 | 122.62863 | 33984 ft | 465 kts | 325° |
| 2026-04-28 22:07 | 12.31046 | 122.59100 | 33989 ft | 466 kts | 325° |
| 2026-04-28 22:08 | 12.36387 | 122.55328 | 33991 ft | 466 kts | 325° |
| 2026-04-28 22:08 | 12.41725 | 122.51556 | 33992 ft | 467 kts | 325° |
| 2026-04-28 22:09 | 12.47099 | 122.47758 | 33992 ft | 467 kts | 324° |
| 2026-04-28 22:09 | 12.52459 | 122.43966 | 33996 ft | 467 kts | 324° |
| 2026-04-28 22:10 | 12.57794 | 122.40189 | 34002 ft | 467 kts | 324° |
| 2026-04-28 22:10 | 12.63133 | 122.36408 | 33995 ft | 466 kts | 324° |
| 2026-04-28 22:11 | 12.68388 | 122.32685 | 34007 ft | 466 kts | 324° |
| 2026-04-28 22:11 | 12.73710 | 122.28913 | 34001 ft | 465 kts | 324° |
| 2026-04-28 22:12 | 12.79036 | 122.25135 | 34001 ft | 465 kts | 324° |
| 2026-04-28 22:12 | 12.84372 | 122.21349 | 33995 ft | 466 kts | 324° |
| 2026-04-28 22:13 | 12.89709 | 122.17561 | 34007 ft | 466 kts | 324° |
| 2026-04-28 22:13 | 12.95046 | 122.13769 | 33998 ft | 463 kts | 324° |
| 2026-04-28 22:14 | 13.00356 | 122.09995 | 33991 ft | 464 kts | 324° |
| 2026-04-28 22:14 | 13.05633 | 122.06243 | 34023 ft | 462 kts | 324° |
| 2026-04-28 22:15 | 13.10943 | 122.02464 | 34038 ft | 462 kts | 324° |
| 2026-04-28 22:15 | 13.16186 | 121.98732 | 34054 ft | 462 kts | 324° |
| 2026-04-28 22:16 | 13.21470 | 121.94969 | 34055 ft | 463 kts | 323° |
| 2026-04-28 22:16 | 13.26759 | 121.91200 | 34069 ft | 463 kts | 324° |
| 2026-04-28 22:17 | 13.31998 | 121.87464 | 34042 ft | 464 kts | 323° |
| 2026-04-28 22:17 | 13.37282 | 121.83695 | 34029 ft | 464 kts | 324° |
| 2026-04-28 22:18 | 13.42611 | 121.79890 | 34014 ft | 463 kts | 323° |
| 2026-04-28 22:18 | 13.47884 | 121.76125 | 34018 ft | 463 kts | 324° |
| 2026-04-28 22:19 | 13.53161 | 121.72354 | 34016 ft | 463 kts | 323° |
| 2026-04-28 22:19 | 13.58485 | 121.68548 | 34012 ft | 463 kts | 323° |
| 2026-04-28 22:20 | 13.63766 | 121.64771 | 34009 ft | 464 kts | 323° |
| 2026-04-28 22:20 | 13.69093 | 121.60957 | 34016 ft | 463 kts | 323° |
| 2026-04-28 22:21 | 13.74376 | 121.57174 | 34016 ft | 464 kts | 323° |
| 2026-04-28 22:21 | 13.79678 | 121.53374 | 34017 ft | 464 kts | 323° |
| 2026-04-28 22:22 | 13.84977 | 121.49575 | 34037 ft | 464 kts | 323° |
| 2026-04-28 22:22 | 13.90293 | 121.45761 | 34056 ft | 465 kts | 323° |
| 2026-04-28 22:23 | 13.95606 | 121.41947 | 34067 ft | 465 kts | 323° |
| 2026-04-28 22:23 | 14.00915 | 121.38135 | 34075 ft | 463 kts | 323° |
| 2026-04-28 22:24 | 14.06195 | 121.34341 | 34070 ft | 463 kts | 323° |
| 2026-04-28 22:24 | 14.11495 | 121.30530 | 34059 ft | 463 kts | 323° |
| 2026-04-28 22:25 | 14.16795 | 121.26717 | 34041 ft | 463 kts | 323° |
| 2026-04-28 22:25 | 14.22011 | 121.22961 | 34028 ft | 463 kts | 323° |
| 2026-04-28 22:26 | 14.27315 | 121.19141 | 34016 ft | 465 kts | 323° |
| 2026-04-28 22:26 | 14.32639 | 121.15304 | 34019 ft | 464 kts | 323° |
| 2026-04-28 22:27 | 14.37923 | 121.11494 | 34007 ft | 463 kts | 323° |
| 2026-04-28 22:27 | 14.43166 | 121.07555 | 34008 ft | 462 kts | 316° |
| 2026-04-28 22:28 | 14.47184 | 121.02483 | 34020 ft | 458 kts | 297° |
| 2026-04-28 22:28 | 14.48855 | 120.98486 | 34027 ft | 456 kts | 285° |
| 2026-04-28 22:28 | 14.49360 | 120.96343 | 34024 ft | 456 kts | 279° |
| 2026-04-28 22:29 | 14.49634 | 120.89844 | 34018 ft | 455 kts | 268° |
| 2026-04-28 22:29 | 14.49386 | 120.83336 | 34013 ft | 456 kts | 267° |
| 2026-04-28 22:30 | 14.49024 | 120.76856 | 34012 ft | 456 kts | 266° |
| 2026-04-28 22:30 | 14.48609 | 120.70341 | 34013 ft | 456 kts | 266° |
| 2026-04-28 22:31 | 14.48171 | 120.63805 | 34037 ft | 455 kts | 266° |
| 2026-04-28 22:31 | 14.47727 | 120.57302 | 34051 ft | 456 kts | 266° |
| 2026-04-28 22:32 | 14.47278 | 120.50800 | 34071 ft | 456 kts | 266° |
| 2026-04-28 22:32 | 14.46834 | 120.44430 | 34051 ft | 457 kts | 266° |
| 2026-04-28 22:33 | 14.46377 | 120.37888 | 34035 ft | 457 kts | 265° |
| 2026-04-28 22:33 | 14.45923 | 120.31438 | 34020 ft | 457 kts | 265° |
| 2026-04-28 22:34 | 14.45463 | 120.24902 | 34007 ft | 457 kts | 265° |
| 2026-04-28 22:34 | 14.45003 | 120.18399 | 34013 ft | 455 kts | 265° |
| 2026-04-28 22:35 | 14.44540 | 120.11894 | 34005 ft | 456 kts | 265° |
| 2026-04-28 22:35 | 14.44078 | 120.05414 | 33995 ft | 457 kts | 265° |
| 2026-04-28 22:36 | 14.43609 | 119.98862 | 33991 ft | 458 kts | 265° |
| 2026-04-28 22:36 | 14.43140 | 119.92332 | 33992 ft | 458 kts | 265° |
| 2026-04-28 22:37 | 14.42671 | 119.85845 | 33990 ft | 456 kts | 265° |
| 2026-04-28 22:37 | 14.42196 | 119.79285 | 33991 ft | 457 kts | 265° |
| 2026-04-28 22:38 | 14.41721 | 119.72774 | 33995 ft | 457 kts | 265° |
| 2026-04-28 22:38 | 14.41247 | 119.66260 | 33991 ft | 457 kts | 265° |
| 2026-04-28 22:39 | 14.40767 | 119.59725 | 33992 ft | 458 kts | 265° |
| 2026-04-28 22:39 | 14.40289 | 119.53217 | 33990 ft | 458 kts | 265° |
| 2026-04-28 22:40 | 14.39805 | 119.46661 | 33988 ft | 458 kts | 265° |
| 2026-04-28 22:40 | 14.39319 | 119.40115 | 33989 ft | 459 kts | 265° |
| 2026-04-28 22:41 | 14.38867 | 119.34045 | 33987 ft | 457 kts | 265° |
| 2026-04-28 22:41 | 14.38377 | 119.27488 | 33992 ft | 458 kts | 265° |
| 2026-04-28 22:42 | 14.37887 | 119.20956 | 33994 ft | 456 kts | 265° |
| 2026-04-28 22:42 | 14.37399 | 119.14463 | 33993 ft | 456 kts | 265° |
| 2026-04-28 22:43 | 14.36909 | 119.07973 | 33999 ft | 457 kts | 265° |
| 2026-04-28 22:43 | 14.36412 | 119.01420 | 34001 ft | 458 kts | 265° |
| 2026-04-28 22:44 | 14.35922 | 118.94971 | 33998 ft | 459 kts | 265° |
| 2026-04-28 22:44 | 14.35422 | 118.88433 | 33999 ft | 458 kts | 265° |
| 2026-04-28 22:45 | 14.34924 | 118.81925 | 34012 ft | 457 kts | 265° |
| 2026-04-28 22:45 | 14.34423 | 118.75413 | 34007 ft | 456 kts | 265° |
| 2026-04-28 22:46 | 14.33918 | 118.68870 | 34005 ft | 457 kts | 265° |
| 2026-04-28 22:46 | 14.33414 | 118.62363 | 34005 ft | 458 kts | 265° |
| 2026-04-28 22:47 | 14.32903 | 118.55795 | 33998 ft | 459 kts | 265° |
| 2026-04-28 22:47 | 14.32392 | 118.49241 | 33995 ft | 459 kts | 265° |
| 2026-04-28 22:48 | 14.31881 | 118.42707 | 33985 ft | 458 kts | 265° |
| 2026-04-28 22:48 | 14.31370 | 118.36210 | 33989 ft | 458 kts | 265° |
| 2026-04-28 22:49 | 14.30859 | 118.29733 | 33997 ft | 458 kts | 264° |
| 2026-04-28 22:49 | 14.30342 | 118.23200 | 33990 ft | 457 kts | 264° |
| 2026-04-28 22:50 | 14.29828 | 118.16721 | 33986 ft | 458 kts | 264° |
| 2026-04-28 22:50 | 14.29317 | 118.10321 | 33994 ft | 459 kts | 264° |
| 2026-04-28 22:51 | 14.28795 | 118.03785 | 33991 ft | 459 kts | 264° |
| 2026-04-28 22:51 | 14.28268 | 117.97225 | 33994 ft | 459 kts | 264° |
| 2026-04-28 22:52 | 14.27739 | 117.90647 | 33991 ft | 458 kts | 264° |
| 2026-04-28 22:52 | 14.27210 | 117.84103 | 33995 ft | 457 kts | 264° |
| 2026-04-28 22:53 | 14.26681 | 117.77576 | 34005 ft | 458 kts | 264° |
| 2026-04-28 22:53 | 14.26147 | 117.71013 | 33999 ft | 458 kts | 264° |
| 2026-04-28 22:54 | 14.25612 | 117.64467 | 33988 ft | 459 kts | 264° |
| 2026-04-28 22:54 | 14.25072 | 117.57872 | 33988 ft | 460 kts | 264° |
| 2026-04-28 22:55 | 14.24533 | 117.51319 | 33994 ft | 460 kts | 264° |
| 2026-04-28 22:55 | 14.23989 | 117.44711 | 33990 ft | 460 kts | 264° |
| 2026-04-28 22:56 | 14.23446 | 117.38154 | 33993 ft | 459 kts | 264° |
| 2026-04-28 22:56 | 14.22903 | 117.31609 | 33983 ft | 458 kts | 264° |
| 2026-04-28 22:57 | 14.22354 | 117.25021 | 33989 ft | 459 kts | 264° |
| 2026-04-28 22:57 | 14.21805 | 117.18452 | 33991 ft | 460 kts | 264° |
| 2026-04-28 22:58 | 14.21252 | 117.11867 | 33988 ft | 461 kts | 264° |
| 2026-04-28 22:58 | 14.20701 | 117.05308 | 33990 ft | 462 kts | 264° |
| 2026-04-28 22:59 | 14.20144 | 116.98708 | 33991 ft | 460 kts | 264° |
| 2026-04-28 22:59 | 14.19586 | 116.92124 | 33988 ft | 460 kts | 264° |
| 2026-04-28 23:00 | 14.19029 | 116.85564 | 33990 ft | 460 kts | 264° |
| 2026-04-28 23:00 | 14.18469 | 116.79003 | 33991 ft | 460 kts | 264° |
| 2026-04-28 23:01 | 14.17909 | 116.72456 | 33986 ft | 460 kts | 264° |
| 2026-04-28 23:01 | 14.17343 | 116.65862 | 33986 ft | 460 kts | 264° |
| 2026-04-28 23:02 | 14.16781 | 116.59333 | 33978 ft | 459 kts | 264° |
| 2026-04-28 23:02 | 14.16210 | 116.52734 | 33982 ft | 460 kts | 264° |
| 2026-04-28 23:03 | 14.15639 | 116.46144 | 33981 ft | 461 kts | 264° |
| 2026-04-28 23:03 | 14.15070 | 116.39593 | 33985 ft | 460 kts | 264° |
| 2026-04-28 23:04 | 14.14493 | 116.32984 | 33990 ft | 461 kts | 264° |
| 2026-04-28 23:04 | 14.13629 | 116.23111 | 33989 ft | 461 kts | 263° |
| 2026-04-28 23:05 | 14.13054 | 116.16579 | 33990 ft | 460 kts | 263° |
| 2026-04-28 23:05 | 14.12472 | 116.09984 | 33993 ft | 461 kts | 263° |
| 2026-04-28 23:06 | 14.11893 | 116.03436 | 33988 ft | 459 kts | 263° |
| 2026-04-28 23:06 | 14.11311 | 115.96877 | 33987 ft | 461 kts | 263° |
| 2026-04-28 23:07 | 14.10723 | 115.90275 | 33988 ft | 462 kts | 263° |
| 2026-04-28 23:07 | 14.10137 | 115.83707 | 33988 ft | 461 kts | 263° |
| 2026-04-28 23:08 | 14.09544 | 115.77093 | 33990 ft | 460 kts | 263° |
| 2026-04-28 23:08 | 14.08955 | 115.70538 | 33990 ft | 461 kts | 263° |
| 2026-04-28 23:09 | 14.08362 | 115.63962 | 33988 ft | 462 kts | 263° |
| 2026-04-28 23:09 | 14.07768 | 115.57380 | 33988 ft | 461 kts | 263° |
| 2026-04-28 23:10 | 14.07172 | 115.50808 | 33987 ft | 458 kts | 263° |
| 2026-04-28 23:10 | 14.06577 | 115.44273 | 33988 ft | 459 kts | 263° |
| 2026-04-28 23:11 | 14.05978 | 115.37704 | 33990 ft | 460 kts | 263° |
| 2026-04-28 23:11 | 14.05377 | 115.31133 | 33992 ft | 461 kts | 263° |
| 2026-04-28 23:12 | 14.04774 | 115.24559 | 33992 ft | 462 kts | 263° |
| 2026-04-28 23:12 | 14.04167 | 115.17965 | 33990 ft | 460 kts | 263° |
| 2026-04-28 23:13 | 14.03565 | 115.11451 | 33987 ft | 459 kts | 263° |
| 2026-04-28 23:13 | 14.02957 | 115.04882 | 33991 ft | 460 kts | 263° |
| 2026-04-28 23:14 | 14.02346 | 114.98299 | 33989 ft | 459 kts | 263° |
| 2026-04-28 23:14 | 14.01733 | 114.91730 | 33990 ft | 460 kts | 263° |
| 2026-04-28 23:15 | 14.01123 | 114.85193 | 33982 ft | 461 kts | 263° |
| 2026-04-28 23:15 | 14.00505 | 114.78595 | 33980 ft | 461 kts | 263° |
| 2026-04-28 23:16 | 13.99785 | 114.70944 | 33972 ft | 461 kts | 263° |
| 2026-04-28 23:16 | 13.99267 | 114.65438 | 33977 ft | 461 kts | 263° |
| 2026-04-28 23:17 | 13.98647 | 114.58881 | 33973 ft | 458 kts | 263° |
| 2026-04-28 23:17 | 13.98027 | 114.52339 | 33979 ft | 458 kts | 263° |
| 2026-04-28 23:18 | 13.97415 | 114.45782 | 33980 ft | 459 kts | 265° |
| 2026-04-28 23:18 | 13.97392 | 114.39174 | 33978 ft | 461 kts | 269° |
| 2026-04-28 23:19 | 13.97430 | 114.32567 | 33977 ft | 461 kts | 268° |
| 2026-04-28 23:19 | 13.97473 | 114.25969 | 33976 ft | 461 kts | 268° |
| 2026-04-28 23:20 | 13.97517 | 114.19338 | 33974 ft | 461 kts | 268° |
| 2026-04-28 23:20 | 13.97557 | 114.12782 | 33974 ft | 457 kts | 268° |
| 2026-04-28 23:21 | 13.97599 | 114.06237 | 33978 ft | 458 kts | 268° |
| 2026-04-28 23:21 | 13.97637 | 113.99659 | 33985 ft | 460 kts | 268° |
| 2026-04-28 23:22 | 13.97655 | 113.96351 | 33990 ft | 460 kts | 268° |
| 2026-04-28 23:22 | 13.97709 | 113.86453 | 33993 ft | 461 kts | 268° |
| 2026-04-28 23:23 | 13.97743 | 113.79845 | 33992 ft | 460 kts | 268° |
| 2026-04-28 23:23 | 13.97775 | 113.73277 | 33983 ft | 458 kts | 268° |
| 2026-04-28 23:24 | 13.97804 | 113.66722 | 33987 ft | 458 kts | 268° |
| 2026-04-28 23:24 | 13.97833 | 113.60211 | 33989 ft | 458 kts | 268° |
| 2026-04-28 23:25 | 13.97858 | 113.53641 | 33985 ft | 457 kts | 269° |
| 2026-04-28 23:25 | 13.97883 | 113.47075 | 33987 ft | 456 kts | 269° |
| 2026-04-28 23:26 | 13.97906 | 113.40525 | 33991 ft | 457 kts | 269° |
| 2026-04-28 23:26 | 13.97926 | 113.34019 | 33988 ft | 458 kts | 269° |
| 2026-04-28 23:27 | 13.97946 | 113.27457 | 33997 ft | 458 kts | 269° |
| 2026-04-28 23:27 | 13.97964 | 113.20863 | 33995 ft | 457 kts | 269° |
| 2026-04-28 23:28 | 13.97979 | 113.14355 | 33989 ft | 457 kts | 269° |
| 2026-04-28 23:28 | 13.97993 | 113.07828 | 33987 ft | 456 kts | 269° |
| 2026-04-28 23:29 | 13.98006 | 113.01272 | 33979 ft | 457 kts | 269° |
| 2026-04-28 23:29 | 13.98018 | 112.94732 | 33983 ft | 457 kts | 269° |
| 2026-04-28 23:30 | 13.98027 | 112.88181 | 33987 ft | 457 kts | 269° |
| 2026-04-28 23:30 | 13.98036 | 112.81752 | 33985 ft | 457 kts | 269° |
| 2026-04-28 23:31 | 13.98043 | 112.75193 | 33988 ft | 457 kts | 269° |
| 2026-04-28 23:31 | 13.98047 | 112.68698 | 33989 ft | 456 kts | 269° |
| 2026-04-28 23:32 | 13.98051 | 112.62188 | 33992 ft | 455 kts | 269° |
| 2026-04-28 23:32 | 13.98052 | 112.55638 | 33996 ft | 455 kts | 268° |
| 2026-04-28 23:33 | 13.98051 | 112.49127 | 33988 ft | 455 kts | 269° |
| 2026-04-28 23:33 | 13.98048 | 112.42594 | 33986 ft | 456 kts | 269° |
| 2026-04-28 23:34 | 13.98045 | 112.36046 | 33987 ft | 457 kts | 269° |
| 2026-04-28 23:34 | 13.98039 | 112.29530 | 33987 ft | 456 kts | 268° |
| 2026-04-28 23:35 | 13.98031 | 112.22995 | 33982 ft | 457 kts | 268° |
| 2026-04-28 23:35 | 13.98023 | 112.16436 | 33977 ft | 456 kts | 268° |
| 2026-04-28 23:36 | 13.98011 | 112.09920 | 33974 ft | 454 kts | 268° |
| 2026-04-28 23:36 | 13.97999 | 112.03417 | 33971 ft | 455 kts | 268° |
| 2026-04-28 23:37 | 13.97984 | 111.96913 | 33978 ft | 456 kts | 268° |
| 2026-04-28 23:37 | 13.97968 | 111.90386 | 33982 ft | 456 kts | 268° |
| 2026-04-28 23:38 | 13.97950 | 111.83846 | 33988 ft | 455 kts | 268° |
| 2026-04-28 23:38 | 13.97930 | 111.77361 | 33984 ft | 455 kts | 268° |
| 2026-04-28 23:39 | 13.97909 | 111.70818 | 33986 ft | 455 kts | 268° |
| 2026-04-28 23:39 | 13.97886 | 111.64342 | 33988 ft | 453 kts | 268° |
| 2026-04-28 23:40 | 13.97861 | 111.57840 | 33985 ft | 454 kts | 268° |
| 2026-04-28 23:40 | 13.97834 | 111.51335 | 33989 ft | 455 kts | 268° |
| 2026-04-28 23:41 | 13.97803 | 111.44816 | 33987 ft | 454 kts | 268° |
| 2026-04-28 23:41 | 13.97771 | 111.38361 | 33988 ft | 453 kts | 268° |
| 2026-04-28 23:42 | 13.97738 | 111.32055 | 33985 ft | 453 kts | 268° |
| 2026-04-28 23:42 | 13.97702 | 111.25629 | 33993 ft | 453 kts | 268° |
| 2026-04-28 23:43 | 13.97665 | 111.19164 | 33989 ft | 452 kts | 268° |
| 2026-04-28 23:43 | 13.97625 | 111.12688 | 33996 ft | 453 kts | 268° |
| 2026-04-28 23:44 | 13.97584 | 111.06177 | 33999 ft | 454 kts | 268° |
| 2026-04-28 23:44 | 13.97541 | 110.99701 | 33988 ft | 453 kts | 268° |
| 2026-04-28 23:45 | 13.97497 | 110.93205 | 33981 ft | 452 kts | 268° |
| 2026-04-28 23:45 | 13.97450 | 110.86734 | 33976 ft | 452 kts | 268° |
| 2026-04-28 23:46 | 13.97403 | 110.80290 | 33975 ft | 451 kts | 268° |
| 2026-04-28 23:46 | 13.97353 | 110.73793 | 33967 ft | 451 kts | 268° |
| 2026-04-28 23:47 | 13.97302 | 110.67323 | 33967 ft | 452 kts | 268° |
| 2026-04-28 23:47 | 13.97249 | 110.60887 | 33966 ft | 451 kts | 268° |
| 2026-04-28 23:48 | 13.97194 | 110.54433 | 33975 ft | 450 kts | 268° |
| 2026-04-28 23:48 | 13.97138 | 110.47990 | 33970 ft | 451 kts | 268° |
| 2026-04-28 23:49 | 13.97080 | 110.41524 | 33965 ft | 450 kts | 268° |
| 2026-04-28 23:49 | 13.97020 | 110.35106 | 33969 ft | 450 kts | 268° |
| 2026-04-28 23:50 | 13.96959 | 110.28630 | 33976 ft | 449 kts | 268° |
| 2026-04-28 23:50 | 13.96897 | 110.22218 | 33970 ft | 449 kts | 268° |
| 2026-04-28 23:51 | 13.96832 | 110.15771 | 33969 ft | 449 kts | 268° |
| 2026-04-28 23:51 | 13.96766 | 110.09347 | 33960 ft | 448 kts | 268° |
| 2026-04-28 23:52 | 13.96697 | 110.02961 | 33964 ft | 449 kts | 268° |
| 2026-04-28 23:52 | 13.96638 | 109.96516 | 33972 ft | 450 kts | 268° |
| 2026-04-28 23:53 | 13.96588 | 109.90093 | 33974 ft | 448 kts | 268° |
| 2026-04-28 23:53 | 13.96534 | 109.83667 | 33993 ft | 448 kts | 268° |
| 2026-04-28 23:54 | 13.96480 | 109.77248 | 33992 ft | 449 kts | 268° |
| 2026-04-28 23:54 | 13.96424 | 109.70821 | 33983 ft | 449 kts | 268° |
| 2026-04-28 23:55 | 13.96365 | 109.64407 | 33987 ft | 449 kts | 268° |
| 2026-04-28 23:55 | 13.96305 | 109.57976 | 33979 ft | 448 kts | 268° |
| 2026-04-28 23:56 | 13.96243 | 109.51566 | 33986 ft | 450 kts | 268° |
| 2026-04-28 23:56 | 13.96177 | 109.45087 | 33993 ft | 451 kts | 268° |
| 2026-04-28 23:57 | 13.96111 | 109.38659 | 33989 ft | 451 kts | 268° |
| 2026-04-28 23:57 | 13.96041 | 109.32208 | 33993 ft | 449 kts | 268° |
| 2026-04-28 23:58 | 13.95970 | 109.25747 | 33992 ft | 451 kts | 268° |
| 2026-04-28 23:58 | 13.95897 | 109.19264 | 33979 ft | 452 kts | 268° |
| 2026-04-28 23:59 | 13.95824 | 109.12856 | 33976 ft | 450 kts | 268° |
| 2026-04-28 23:59 | 13.95747 | 109.06377 | 33997 ft | 450 kts | 268° |
| 2026-04-29 00:00 | 13.95925 | 108.99940 | 34009 ft | 451 kts | 271° |
| 2026-04-29 00:00 | 13.96254 | 108.93500 | 34020 ft | 450 kts | 271° |
| 2026-04-29 00:01 | 13.96573 | 108.87087 | 34031 ft | 451 kts | 271° |
| 2026-04-29 00:01 | 13.96892 | 108.80618 | 34037 ft | 450 kts | 271° |
| 2026-04-29 00:02 | 13.97202 | 108.74309 | 34068 ft | 449 kts | 271° |
| 2026-04-29 00:02 | 13.97516 | 108.67843 | 34068 ft | 450 kts | 271° |
| 2026-04-29 00:03 | 13.97827 | 108.61393 | 34080 ft | 450 kts | 271° |
| 2026-04-29 00:03 | 13.98135 | 108.54994 | 34074 ft | 448 kts | 271° |
| 2026-04-29 00:04 | 13.98443 | 108.48559 | 34070 ft | 449 kts | 271° |
| 2026-04-29 00:04 | 13.98741 | 108.42280 | 34086 ft | 448 kts | 271° |
| 2026-04-29 00:05 | 13.99044 | 108.35873 | 34096 ft | 447 kts | 271° |
| 2026-04-29 00:05 | 13.99340 | 108.29575 | 34109 ft | 448 kts | 271° |
| 2026-04-29 00:06 | 13.99640 | 108.23148 | 34120 ft | 447 kts | 271° |
| 2026-04-29 00:06 | 13.99938 | 108.16748 | 34121 ft | 448 kts | 271° |
| 2026-04-29 00:07 | 14.00238 | 108.10323 | 34128 ft | 447 kts | 271° |
| 2026-04-29 00:07 | 14.00794 | 108.03949 | 34143 ft | 450 kts | 281° |
| 2026-04-29 00:08 | 14.03106 | 107.97921 | 34161 ft | 456 kts | 295° |
| 2026-04-29 00:08 | 14.06078 | 107.92156 | 34122 ft | 455 kts | 295° |
| 2026-04-29 00:09 | 14.09071 | 107.86407 | 34126 ft | 455 kts | 295° |
| 2026-04-29 00:09 | 14.12082 | 107.80653 | 34095 ft | 454 kts | 295° |
| 2026-04-29 00:10 | 14.15081 | 107.74928 | 34101 ft | 454 kts | 295° |
| 2026-04-29 00:10 | 14.18080 | 107.69202 | 34095 ft | 455 kts | 295° |
| 2026-04-29 00:11 | 14.21089 | 107.63460 | 34107 ft | 454 kts | 295° |
| 2026-04-29 00:12 | 14.25540 | 107.54953 | 34116 ft | 454 kts | 295° |
| 2026-04-29 00:12 | 14.28532 | 107.49232 | 34141 ft | 455 kts | 295° |
| 2026-04-29 00:13 | 14.31553 | 107.43450 | 34092 ft | 455 kts | 295° |
| 2026-04-29 00:13 | 14.34558 | 107.37707 | 34092 ft | 455 kts | 295° |
| 2026-04-29 00:14 | 14.37567 | 107.31976 | 34096 ft | 455 kts | 295° |
| 2026-04-29 00:14 | 14.40583 | 107.26224 | 34077 ft | 455 kts | 294° |
| 2026-04-29 00:15 | 14.43604 | 107.20458 | 34083 ft | 454 kts | 295° |
| 2026-04-29 00:15 | 14.46599 | 107.14738 | 34069 ft | 453 kts | 295° |
| 2026-04-29 00:16 | 14.49611 | 107.08982 | 34083 ft | 454 kts | 294° |
| 2026-04-29 00:16 | 14.52612 | 107.03241 | 34066 ft | 455 kts | 295° |
| 2026-04-29 00:17 | 14.55606 | 106.97512 | 34059 ft | 455 kts | 294° |
| 2026-04-29 00:17 | 14.58618 | 106.91742 | 34049 ft | 456 kts | 295° |
| 2026-04-29 00:18 | 14.61632 | 106.85965 | 34043 ft | 456 kts | 294° |
| 2026-04-29 00:18 | 14.64633 | 106.80209 | 34031 ft | 455 kts | 294° |
| 2026-04-29 00:19 | 14.67658 | 106.74400 | 34022 ft | 456 kts | 294° |
| 2026-04-29 00:19 | 14.70656 | 106.68642 | 34021 ft | 457 kts | 294° |
| 2026-04-29 00:20 | 14.73688 | 106.62813 | 34008 ft | 457 kts | 295° |
| 2026-04-29 00:20 | 14.76672 | 106.57071 | 34014 ft | 456 kts | 294° |
| 2026-04-29 00:21 | 14.79693 | 106.51253 | 34021 ft | 456 kts | 294° |
| 2026-04-29 00:21 | 14.82686 | 106.45486 | 34034 ft | 458 kts | 294° |
| 2026-04-29 00:22 | 14.85709 | 106.39657 | 34040 ft | 458 kts | 294° |
| 2026-04-29 00:22 | 14.88621 | 106.34037 | 34059 ft | 457 kts | 294° |
| 2026-04-29 00:23 | 14.91614 | 106.28257 | 34099 ft | 457 kts | 294° |
| 2026-04-29 00:23 | 14.94645 | 106.22398 | 34104 ft | 456 kts | 294° |
| 2026-04-29 00:24 | 14.97635 | 106.16616 | 34085 ft | 458 kts | 294° |
| 2026-04-29 00:24 | 15.00590 | 106.10895 | 34073 ft | 458 kts | 294° |
| 2026-04-29 00:25 | 15.03590 | 106.05084 | 34012 ft | 457 kts | 294° |
| 2026-04-29 00:25 | 15.06586 | 105.99276 | 34021 ft | 456 kts | 294° |
| 2026-04-29 00:26 | 15.09573 | 105.93480 | 33987 ft | 455 kts | 294° |
| 2026-04-29 00:26 | 15.12571 | 105.87657 | 33990 ft | 455 kts | 294° |
| 2026-04-29 00:27 | 15.15549 | 105.81870 | 33979 ft | 456 kts | 294° |
| 2026-04-29 00:27 | 15.18421 | 105.76025 | 33998 ft | 453 kts | 288° |
| 2026-04-29 00:28 | 15.19726 | 105.69769 | 34019 ft | 442 kts | 272° |
| 2026-04-29 00:28 | 15.20195 | 105.63384 | 33976 ft | 444 kts | 272° |
| 2026-04-29 00:29 | 15.20606 | 105.57015 | 34002 ft | 444 kts | 271° |
| 2026-04-29 00:29 | 15.20985 | 105.50625 | 34003 ft | 445 kts | 271° |
| 2026-04-29 00:30 | 15.21354 | 105.44211 | 34000 ft | 444 kts | 271° |
| 2026-04-29 00:30 | 15.21713 | 105.37852 | 34017 ft | 444 kts | 272° |
| 2026-04-29 00:31 | 15.22073 | 105.31426 | 34024 ft | 443 kts | 271° |
| 2026-04-29 00:31 | 15.22426 | 105.25073 | 34008 ft | 443 kts | 271° |
| 2026-04-29 00:32 | 15.22779 | 105.18681 | 34027 ft | 442 kts | 272° |
| 2026-04-29 00:32 | 15.23127 | 105.12344 | 34023 ft | 442 kts | 272° |
| 2026-04-29 00:33 | 15.23473 | 105.06001 | 34015 ft | 442 kts | 272° |
| 2026-04-29 00:33 | 15.23818 | 104.99644 | 34017 ft | 443 kts | 272° |
| 2026-04-29 00:34 | 15.24162 | 104.93285 | 34016 ft | 443 kts | 272° |
| 2026-04-29 00:34 | 15.24906 | 104.86955 | 34027 ft | 445 kts | 284° |
| 2026-04-29 00:35 | 15.27368 | 104.81022 | 34023 ft | 450 kts | 294° |
| 2026-04-29 00:35 | 15.30168 | 104.75233 | 34016 ft | 449 kts | 294° |
| 2026-04-29 00:36 | 15.32989 | 104.69452 | 34012 ft | 448 kts | 295° |
| 2026-04-29 00:36 | 15.35832 | 104.63655 | 34010 ft | 449 kts | 295° |
| 2026-04-29 00:37 | 15.38646 | 104.57916 | 34010 ft | 448 kts | 295° |
| 2026-04-29 00:37 | 15.41499 | 104.52100 | 33989 ft | 449 kts | 295° |
| 2026-04-29 00:38 | 15.44339 | 104.46310 | 33988 ft | 449 kts | 295° |
| 2026-04-29 00:38 | 15.47169 | 104.40531 | 33987 ft | 450 kts | 295° |
| 2026-04-29 00:39 | 15.49995 | 104.34760 | 33979 ft | 450 kts | 295° |
| 2026-04-29 00:39 | 15.52837 | 104.28949 | 33989 ft | 450 kts | 295° |
| 2026-04-29 00:40 | 15.55654 | 104.23186 | 33981 ft | 449 kts | 295° |
| 2026-04-29 00:40 | 15.58498 | 104.17361 | 33992 ft | 450 kts | 296° |
| 2026-04-29 00:41 | 15.61285 | 104.11650 | 33993 ft | 451 kts | 296° |
| 2026-04-29 00:41 | 15.64060 | 104.05957 | 33977 ft | 451 kts | 296° |
| 2026-04-29 00:42 | 15.66909 | 104.00111 | 33997 ft | 454 kts | 296° |
| 2026-04-29 00:42 | 15.69764 | 103.94245 | 33989 ft | 453 kts | 296° |
| 2026-04-29 00:43 | 15.72602 | 103.88411 | 33981 ft | 454 kts | 296° |
| 2026-04-29 00:43 | 15.75469 | 103.82512 | 33990 ft | 455 kts | 296° |
| 2026-04-29 00:44 | 15.78278 | 103.76727 | 33999 ft | 455 kts | 296° |
| 2026-04-29 00:44 | 15.81124 | 103.70861 | 34000 ft | 452 kts | 296° |
| 2026-04-29 00:45 | 15.83962 | 103.65007 | 33998 ft | 454 kts | 296° |
| 2026-04-29 00:45 | 15.86806 | 103.59135 | 33991 ft | 456 kts | 296° |
| 2026-04-29 00:46 | 15.89664 | 103.53230 | 33993 ft | 457 kts | 296° |
| 2026-04-29 00:46 | 15.92513 | 103.47337 | 33974 ft | 455 kts | 296° |
| 2026-04-29 00:47 | 15.95349 | 103.41467 | 33976 ft | 456 kts | 296° |
| 2026-04-29 00:47 | 15.98215 | 103.35530 | 33976 ft | 457 kts | 296° |
| 2026-04-29 00:48 | 16.01057 | 103.29637 | 33995 ft | 457 kts | 296° |
| 2026-04-29 00:48 | 16.03898 | 103.23743 | 33987 ft | 455 kts | 296° |
| 2026-04-29 00:49 | 16.06705 | 103.17915 | 33988 ft | 457 kts | 296° |
| 2026-04-29 00:49 | 16.09550 | 103.11999 | 33985 ft | 457 kts | 296° |
| 2026-04-29 00:50 | 16.12406 | 103.06058 | 33987 ft | 457 kts | 296° |
| 2026-04-29 00:50 | 16.15208 | 103.00223 | 33979 ft | 458 kts | 296° |
| 2026-04-29 00:51 | 16.18051 | 102.94299 | 33995 ft | 457 kts | 296° |
| 2026-04-29 00:51 | 16.20899 | 102.88357 | 33987 ft | 459 kts | 296° |
| 2026-04-29 00:52 | 16.23738 | 102.82433 | 34007 ft | 457 kts | 296° |
| 2026-04-29 00:52 | 16.26560 | 102.76534 | 34029 ft | 455 kts | 296° |
| 2026-04-29 00:53 | 16.29408 | 102.70579 | 34009 ft | 458 kts | 296° |
| 2026-04-29 00:53 | 16.32242 | 102.64648 | 34026 ft | 457 kts | 296° |
| 2026-04-29 00:54 | 16.35050 | 102.58766 | 34028 ft | 453 kts | 296° |
| 2026-04-29 00:54 | 16.37860 | 102.52872 | 34005 ft | 455 kts | 296° |
| 2026-04-29 00:55 | 16.40623 | 102.47074 | 33979 ft | 453 kts | 295° |
| 2026-04-29 00:55 | 16.43443 | 102.41152 | 33989 ft | 455 kts | 296° |
| 2026-04-29 00:56 | 16.46255 | 102.35241 | 33972 ft | 455 kts | 295° |
| 2026-04-29 00:56 | 16.49057 | 102.29346 | 33983 ft | 452 kts | 295° |
| 2026-04-29 00:57 | 16.51839 | 102.23487 | 33992 ft | 452 kts | 295° |
| 2026-04-29 00:57 | 16.54642 | 102.17579 | 33999 ft | 454 kts | 295° |
| 2026-04-29 00:58 | 16.57449 | 102.11658 | 34006 ft | 454 kts | 295° |
| 2026-04-29 00:58 | 16.60232 | 102.05782 | 34014 ft | 450 kts | 295° |
| 2026-04-29 00:59 | 16.62822 | 101.99792 | 34018 ft | 451 kts | 286° |
| 2026-04-29 00:59 | 16.63847 | 101.93356 | 34033 ft | 449 kts | 276° |
| 2026-04-29 01:00 | 16.64457 | 101.86880 | 34045 ft | 451 kts | 275° |
| 2026-04-29 01:00 | 16.65029 | 101.80342 | 34060 ft | 451 kts | 275° |
| 2026-04-29 01:01 | 16.65583 | 101.73790 | 34077 ft | 451 kts | 275° |
| 2026-04-29 01:01 | 16.66124 | 101.67279 | 34081 ft | 449 kts | 275° |
| 2026-04-29 01:02 | 16.66659 | 101.60794 | 34085 ft | 449 kts | 274° |
| 2026-04-29 01:02 | 16.67192 | 101.54297 | 34093 ft | 451 kts | 275° |
| 2026-04-29 01:03 | 16.67724 | 101.47765 | 34052 ft | 449 kts | 275° |
| 2026-04-29 01:03 | 16.68249 | 101.41315 | 33967 ft | 447 kts | 275° |
| 2026-04-29 01:04 | 16.68774 | 101.34836 | 33971 ft | 448 kts | 274° |
| 2026-04-29 01:04 | 16.69295 | 101.28357 | 33970 ft | 449 kts | 275° |
| 2026-04-29 01:05 | 16.69817 | 101.21868 | 33971 ft | 447 kts | 274° |
| 2026-04-29 01:05 | 16.70335 | 101.15400 | 33964 ft | 447 kts | 274° |
| 2026-04-29 01:06 | 16.70847 | 101.08962 | 33977 ft | 449 kts | 274° |
| 2026-04-29 01:06 | 16.71361 | 101.02490 | 33974 ft | 447 kts | 275° |
| 2026-04-29 01:07 | 16.71876 | 100.95985 | 33989 ft | 448 kts | 274° |
| 2026-04-29 01:07 | 16.72386 | 100.89501 | 33995 ft | 449 kts | 274° |
| 2026-04-29 01:07 | 16.72639 | 100.86265 | 34125 ft | 445 kts | 275° |
| 2026-04-29 01:08 | 16.72893 | 100.83014 | 34065 ft | 444 kts | 275° |
| 2026-04-29 01:08 | 16.73393 | 100.76635 | 34089 ft | 445 kts | 275° |
| 2026-04-29 01:09 | 16.73884 | 100.70310 | 34071 ft | 445 kts | 275° |
| 2026-04-29 01:09 | 16.74380 | 100.63911 | 34051 ft | 441 kts | 275° |
| 2026-04-29 01:10 | 16.74876 | 100.57503 | 34028 ft | 444 kts | 275° |
| 2026-04-29 01:10 | 16.75367 | 100.51094 | 33979 ft | 442 kts | 275° |
| 2026-04-29 01:11 | 16.75854 | 100.44737 | 33975 ft | 440 kts | 275° |
| 2026-04-29 01:11 | 16.76341 | 100.38354 | 33963 ft | 441 kts | 275° |
| 2026-04-29 01:12 | 16.76825 | 100.31969 | 33977 ft | 441 kts | 275° |
| 2026-04-29 01:12 | 16.77179 | 100.25568 | 33976 ft | 440 kts | 273° |
| 2026-04-29 01:13 | 16.77409 | 100.19197 | 33973 ft | 438 kts | 273° |
| 2026-04-29 01:13 | 16.77645 | 100.12793 | 33975 ft | 441 kts | 272° |
| 2026-04-29 01:14 | 16.77876 | 100.06416 | 33964 ft | 441 kts | 273° |
| 2026-04-29 01:14 | 16.78108 | 100.00017 | 33959 ft | 439 kts | 273° |
| 2026-04-29 01:15 | 16.78335 | 99.93669 | 33959 ft | 438 kts | 273° |
| 2026-04-29 01:15 | 16.78562 | 99.87278 | 33949 ft | 438 kts | 273° |
| 2026-04-29 01:16 | 16.78786 | 99.80952 | 33940 ft | 438 kts | 273° |
| 2026-04-29 01:16 | 16.79007 | 99.74609 | 33952 ft | 436 kts | 273° |
| 2026-04-29 01:17 | 16.79227 | 99.68269 | 33947 ft | 437 kts | 273° |
| 2026-04-29 01:17 | 16.79444 | 99.61935 | 33952 ft | 436 kts | 273° |
| 2026-04-29 01:18 | 16.79659 | 99.55608 | 33970 ft | 436 kts | 273° |
| 2026-04-29 01:18 | 16.79976 | 99.46177 | 33985 ft | 433 kts | 274° |
| 2026-04-29 01:19 | 16.80186 | 99.39880 | 33999 ft | 434 kts | 273° |
| 2026-04-29 01:19 | 16.80394 | 99.33540 | 34001 ft | 436 kts | 273° |
| 2026-04-29 01:20 | 16.80600 | 99.27236 | 34017 ft | 433 kts | 273° |
| 2026-04-29 01:20 | 16.80804 | 99.20927 | 34006 ft | 433 kts | 273° |
| 2026-04-29 01:21 | 16.81006 | 99.14641 | 34024 ft | 434 kts | 273° |
| 2026-04-29 01:21 | 16.81205 | 99.08349 | 34047 ft | 433 kts | 273° |
| 2026-04-29 01:22 | 16.81401 | 99.02100 | 34080 ft | 431 kts | 274° |
| 2026-04-29 01:22 | 16.81596 | 98.95849 | 34093 ft | 431 kts | 273° |
| 2026-04-29 01:23 | 16.81789 | 98.89571 | 34046 ft | 431 kts | 274° |
| 2026-04-29 01:23 | 16.81980 | 98.83335 | 34073 ft | 430 kts | 274° |
| 2026-04-29 01:24 | 16.82170 | 98.77057 | 34020 ft | 432 kts | 273° |
| 2026-04-29 01:24 | 16.82357 | 98.70798 | 34009 ft | 431 kts | 273° |
| 2026-04-29 01:25 | 16.82543 | 98.64517 | 34005 ft | 430 kts | 273° |
| 2026-04-29 01:25 | 16.82726 | 98.58257 | 34010 ft | 432 kts | 273° |
| 2026-04-29 01:26 | 16.82910 | 98.52039 | 34001 ft | 430 kts | 275° |
| 2026-04-29 01:26 | 16.84077 | 98.45948 | 34028 ft | 428 kts | 287° |
| 2026-04-29 01:27 | 16.85723 | 98.39964 | 34003 ft | 428 kts | 286° |
| 2026-04-29 01:27 | 16.87379 | 98.33985 | 34011 ft | 427 kts | 286° |
| 2026-04-29 01:28 | 16.89039 | 98.28014 | 34044 ft | 428 kts | 286° |
| 2026-04-29 01:28 | 16.90687 | 98.22088 | 34078 ft | 427 kts | 286° |
| 2026-04-29 01:29 | 16.92349 | 98.16105 | 34060 ft | 427 kts | 286° |
| 2026-04-29 01:29 | 16.93996 | 98.10175 | 34048 ft | 428 kts | 286° |
| 2026-04-29 01:30 | 16.95666 | 98.04155 | 34039 ft | 427 kts | 286° |
| 2026-04-29 01:30 | 16.97310 | 97.98219 | 34009 ft | 426 kts | 286° |
| 2026-04-29 01:31 | 16.98952 | 97.92281 | 34010 ft | 426 kts | 286° |
| 2026-04-29 01:31 | 17.00549 | 97.86307 | 34010 ft | 426 kts | 283° |
| 2026-04-29 01:32 | 17.01966 | 97.80287 | 34002 ft | 426 kts | 283° |
| 2026-04-29 01:32 | 17.03385 | 97.74270 | 34001 ft | 426 kts | 284° |
| 2026-04-29 01:33 | 17.04811 | 97.68223 | 34000 ft | 429 kts | 284° |
| 2026-04-29 01:33 | 17.06233 | 97.62188 | 33998 ft | 427 kts | 284° |
| 2026-04-29 01:34 | 17.07645 | 97.56190 | 33986 ft | 426 kts | 284° |
| 2026-04-29 01:34 | 17.09063 | 97.50158 | 33990 ft | 427 kts | 284° |
| 2026-04-29 01:35 | 17.10483 | 97.44115 | 33989 ft | 428 kts | 283° |
| 2026-04-29 01:35 | 17.11907 | 97.38040 | 33984 ft | 429 kts | 283° |
| 2026-04-29 01:36 | 17.13324 | 97.31984 | 33992 ft | 426 kts | 283° |
| 2026-04-29 01:36 | 17.14724 | 97.25993 | 33993 ft | 427 kts | 283° |
| 2026-04-29 01:37 | 17.16137 | 97.19942 | 33988 ft | 427 kts | 283° |
| 2026-04-29 01:37 | 17.17547 | 97.13892 | 33998 ft | 426 kts | 283° |
| 2026-04-29 01:38 | 17.18952 | 97.07856 | 33996 ft | 428 kts | 283° |
| 2026-04-29 01:38 | 17.20364 | 97.01782 | 33995 ft | 429 kts | 283° |
| 2026-04-29 01:39 | 17.21761 | 96.95760 | 33989 ft | 427 kts | 283° |
| 2026-04-29 01:39 | 17.23162 | 96.89713 | 33990 ft | 427 kts | 283° |
| 2026-04-29 01:40 | 17.24565 | 96.83649 | 33988 ft | 427 kts | 283° |
| 2026-04-29 01:40 | 17.25959 | 96.77619 | 33992 ft | 428 kts | 283° |
| 2026-04-29 01:41 | 17.27357 | 96.71564 | 33987 ft | 430 kts | 283° |
| 2026-04-29 01:41 | 17.28757 | 96.65487 | 33988 ft | 428 kts | 283° |
| 2026-04-29 01:42 | 17.30147 | 96.59445 | 33995 ft | 427 kts | 283° |
| 2026-04-29 01:42 | 17.31172 | 96.53336 | 33995 ft | 428 kts | 271° |
| 2026-04-29 01:43 | 17.30304 | 96.47172 | 34000 ft | 430 kts | 257° |